createdAt,value
2023-01-10T00:00:39.596Z,501.00
2023-01-10T00:01:39.513Z,502.00
2023-01-10T00:02:39.610Z,502.00
2023-01-10T00:03:39.427Z,501.00
2023-01-10T00:04:39.577Z,501.00
2023-01-10T00:05:39.339Z,503.00
2023-01-10T00:55:35.023Z,500.00
2023-01-10T00:56:35.963Z,500.00
2023-01-10T00:57:35.942Z,500.00
2023-01-10T00:58:35.943Z,500.00
2023-01-10T00:59:35.899Z,500.00
2023-01-10T01:00:35.874Z,500.00
2023-01-10T01:01:36.031Z,462.00
2023-01-10T01:02:35.894Z,447.00
2023-01-10T01:03:35.795Z,453.00
2023-01-10T01:04:35.778Z,468.00
2023-01-10T01:05:35.759Z,493.00
2023-01-10T01:06:35.746Z,500.00
2023-01-10T01:07:35.716Z,500.00
2023-01-10T01:08:35.684Z,500.00
2023-01-10T01:09:35.663Z,500.00
2023-01-10T01:10:35.633Z,500.00
2023-01-10T01:11:35.649Z,500.00
2023-01-10T01:12:35.616Z,500.00
2023-01-10T01:13:35.567Z,500.00
2023-01-10T01:14:35.534Z,500.00
2023-01-10T01:15:35.549Z,500.00
2023-01-10T01:16:35.470Z,508.00
2023-01-10T01:17:35.446Z,505.00
2023-01-10T01:18:35.420Z,504.00
2023-01-10T01:19:35.377Z,500.00
2023-01-10T01:20:35.343Z,500.00
2023-01-10T01:21:35.303Z,500.00
2023-01-10T01:22:35.275Z,501.00
2023-01-10T01:23:35.241Z,502.00
2023-01-10T01:24:35.218Z,500.00
2023-01-10T01:25:35.179Z,500.00
2023-01-10T01:26:35.155Z,501.00
2023-01-10T01:27:35.185Z,500.00
2023-01-10T01:28:35.128Z,500.00
2023-01-10T01:29:42.969Z,500.00
2023-01-10T01:30:35.106Z,500.00
2023-01-10T01:31:35.047Z,501.00
2023-01-10T01:32:35.039Z,502.00
2023-01-10T01:33:35.030Z,498.00
2023-01-10T01:34:35.002Z,494.00
2023-01-10T01:35:34.958Z,501.00
2023-01-10T01:36:34.923Z,500.00
2023-01-10T01:37:34.888Z,500.00
2023-01-10T01:38:34.858Z,501.00
2023-01-10T01:39:34.836Z,500.00
2023-01-10T01:40:34.811Z,502.00
2023-01-10T01:41:34.776Z,502.00
2023-01-10T01:42:34.749Z,501.00
2023-01-10T01:43:34.745Z,504.00
2023-01-10T01:44:34.690Z,500.00
2023-01-10T01:45:34.691Z,501.00
2023-01-10T01:46:34.707Z,501.00
2023-01-10T01:47:34.617Z,500.00
2023-01-10T01:48:34.614Z,501.00
2023-01-10T01:49:34.579Z,502.00
2023-01-10T01:50:34.570Z,501.00
2023-01-10T01:51:34.537Z,501.00
2023-01-10T01:52:34.500Z,504.00
2023-01-10T01:53:34.479Z,500.00
2023-01-10T01:54:34.461Z,501.00
2023-01-10T01:55:34.481Z,500.00
2023-01-10T01:56:34.420Z,501.00
2023-01-10T01:57:34.368Z,501.00
2023-01-10T01:58:34.344Z,501.00
2023-01-10T01:59:34.349Z,502.00
2023-01-10T02:00:34.320Z,501.00
2023-01-10T02:01:34.377Z,504.00
2023-01-10T02:02:34.243Z,502.00
2023-01-10T02:03:34.213Z,501.00
2023-01-10T02:04:34.184Z,502.00
2023-01-10T02:05:34.163Z,502.00
2023-01-10T02:06:34.141Z,502.00
2023-01-10T02:07:34.104Z,502.00
2023-01-10T02:08:34.081Z,502.00
2023-01-10T02:09:34.053Z,502.00
2023-01-10T02:10:34.018Z,502.00
2023-01-10T02:11:33.994Z,502.00
2023-01-10T02:12:33.980Z,504.00
2023-01-10T02:13:33.932Z,502.00
2023-01-10T02:14:33.892Z,501.00
2023-01-10T02:15:33.891Z,502.00
2023-01-10T02:16:33.851Z,502.00
2023-01-10T02:17:33.817Z,504.00
2023-01-10T02:18:33.789Z,501.00
2023-01-10T02:19:33.766Z,504.00
2023-01-10T02:20:33.750Z,504.00
2023-01-10T02:21:33.730Z,503.00
2023-01-10T02:22:33.711Z,502.00
2023-01-10T02:23:33.699Z,502.00
2023-01-10T02:24:33.670Z,502.00
2023-01-10T02:25:33.654Z,504.00
2023-01-10T02:26:33.640Z,503.00
2023-01-10T02:27:33.617Z,500.00
2023-01-10T02:28:33.609Z,501.00
2023-01-10T02:29:33.587Z,503.00
2023-01-10T02:30:33.566Z,504.00
2023-01-10T02:31:33.683Z,502.00
2023-01-10T02:32:43.864Z,505.00
2023-01-10T02:33:33.492Z,506.00
2023-01-10T02:34:33.496Z,507.00
2023-01-10T02:35:33.446Z,507.00
2023-01-10T02:36:33.440Z,506.00
2023-01-10T02:37:33.411Z,505.00
2023-01-10T02:38:33.391Z,504.00
2023-01-10T02:39:33.376Z,506.00
2023-01-10T02:40:33.356Z,506.00
2023-01-10T02:41:33.339Z,505.00
2023-01-10T02:42:33.308Z,504.00
2023-01-10T02:43:33.281Z,503.00
2023-01-10T02:44:33.266Z,504.00
2023-01-10T02:45:33.241Z,503.00
2023-01-10T02:46:33.256Z,504.00
2023-01-10T02:47:33.212Z,505.00
2023-01-10T02:48:33.164Z,503.00
2023-01-10T02:49:33.145Z,504.00
2023-01-10T02:50:33.140Z,504.00
2023-01-10T02:51:33.111Z,507.00
2023-01-10T02:52:33.070Z,506.00
2023-01-10T02:53:33.044Z,504.00
2023-01-10T02:54:33.021Z,506.00
2023-01-10T02:55:33.000Z,503.00
2023-01-10T02:56:32.967Z,504.00
2023-01-10T02:57:32.943Z,504.00
2023-01-10T02:58:32.917Z,507.00
2023-01-10T02:59:32.891Z,504.00
2023-01-10T03:00:32.862Z,504.00
2023-01-10T03:01:32.973Z,505.00
2023-01-10T03:02:32.813Z,506.00
2023-01-10T03:03:32.816Z,506.00
2023-01-10T03:04:32.822Z,505.00
2023-01-10T03:05:32.739Z,505.00
2023-01-10T03:06:32.731Z,503.00
2023-01-10T03:07:32.688Z,505.00
2023-01-10T03:08:32.657Z,505.00
2023-01-10T03:09:34.383Z,505.00
2023-01-10T03:10:32.599Z,505.00
2023-01-10T03:11:32.567Z,506.00
2023-01-10T03:12:32.536Z,506.00
2023-01-10T03:13:32.518Z,505.00
2023-01-10T03:14:32.511Z,506.00
2023-01-10T03:15:32.480Z,506.00
2023-01-10T03:16:32.467Z,507.00
2023-01-10T03:17:32.426Z,505.00
2023-01-10T03:18:32.395Z,508.00
2023-01-10T03:19:32.388Z,505.00
2023-01-10T03:20:32.336Z,506.00
2023-01-10T03:21:32.306Z,506.00
2023-01-10T03:22:32.279Z,505.00
2023-01-10T03:23:32.244Z,505.00
2023-01-10T03:24:32.220Z,506.00
2023-01-10T03:25:32.177Z,505.00
2023-01-10T03:26:32.145Z,504.00
2023-01-10T03:27:32.124Z,506.00
2023-01-10T03:28:32.104Z,504.00
2023-01-10T03:29:32.067Z,503.00
2023-01-10T03:30:32.039Z,503.00
2023-01-10T03:31:32.120Z,506.00
2023-01-10T03:32:32.001Z,507.00
2023-01-10T03:33:31.973Z,506.00
2023-01-10T03:34:31.984Z,506.00
2023-01-10T03:35:31.948Z,505.00
2023-01-10T03:36:31.902Z,503.00
2023-01-10T03:37:31.875Z,505.00
2023-01-10T03:38:31.851Z,506.00
2023-01-10T03:39:31.845Z,507.00
2023-01-10T03:40:31.823Z,506.00
2023-01-10T03:41:31.792Z,506.00
2023-01-10T03:42:31.771Z,505.00
2023-01-10T03:43:31.744Z,506.00
2023-01-10T03:44:31.717Z,507.00
2023-01-10T03:45:31.694Z,507.00
2023-01-10T03:46:31.765Z,503.00
2023-01-10T03:47:31.628Z,504.00
2023-01-10T03:48:31.618Z,506.00
2023-01-10T03:49:31.591Z,504.00
2023-01-10T03:50:31.564Z,504.00
2023-01-10T03:51:31.583Z,506.00
2023-01-10T03:52:31.523Z,505.00
2023-01-10T03:53:31.503Z,506.00
2023-01-10T03:54:31.488Z,503.00
2023-01-10T03:55:31.460Z,506.00
2023-01-10T03:56:31.437Z,509.00
2023-01-10T03:57:31.423Z,504.00
2023-01-10T03:58:31.398Z,506.00
2023-01-10T03:59:31.373Z,507.00
2023-01-10T04:00:31.364Z,505.00
2023-01-10T04:01:31.451Z,506.00
2023-01-10T04:02:31.339Z,505.00
2023-01-10T04:03:31.282Z,505.00
2023-01-10T04:04:31.256Z,506.00
2023-01-10T04:05:31.248Z,507.00
2023-01-10T04:06:31.230Z,504.00
2023-01-10T04:07:31.229Z,505.00
2023-01-10T04:08:31.187Z,505.00
2023-01-10T04:09:31.179Z,505.00
2023-01-10T04:10:31.142Z,507.00
2023-01-10T04:11:31.124Z,507.00
2023-01-10T04:12:31.107Z,505.00
2023-01-10T04:13:31.096Z,503.00
2023-01-10T04:14:31.067Z,506.00
2023-01-10T04:15:31.029Z,504.00
2023-01-10T04:16:31.070Z,506.00
2023-01-10T04:17:31.006Z,506.00
2023-01-10T04:18:31.020Z,505.00
2023-01-10T04:19:30.970Z,505.00
2023-01-10T04:20:30.969Z,504.00
2023-01-10T04:21:30.940Z,502.00
2023-01-10T04:22:30.915Z,505.00
2023-01-10T04:23:30.929Z,504.00
2023-01-10T04:24:30.865Z,505.00
2023-01-10T04:25:31.662Z,506.00
2023-01-10T04:26:30.804Z,507.00
2023-01-10T04:27:30.776Z,505.00
2023-01-10T04:28:30.755Z,506.00
2023-01-10T04:29:30.738Z,505.00
2023-01-10T04:30:30.717Z,506.00
2023-01-10T04:31:30.814Z,505.00
2023-01-10T04:32:30.664Z,506.00
2023-01-10T04:33:30.638Z,504.00
2023-01-10T04:34:30.616Z,504.00
2023-01-10T04:35:30.605Z,505.00
2023-01-10T04:36:30.591Z,504.00
2023-01-10T04:37:30.567Z,505.00
2023-01-10T04:38:30.547Z,507.00
2023-01-10T04:39:30.543Z,504.00
2023-01-10T04:40:30.491Z,504.00
2023-01-10T04:41:30.468Z,503.00
2023-01-10T04:42:30.452Z,505.00
2023-01-10T04:43:30.441Z,504.00
2023-01-10T04:44:30.421Z,506.00
2023-01-10T04:45:30.430Z,505.00
2023-01-10T04:46:30.359Z,504.00
2023-01-10T04:47:30.341Z,504.00
2023-01-10T04:48:30.304Z,505.00
2023-01-10T04:49:30.285Z,503.00
2023-01-10T04:50:30.265Z,504.00
2023-01-10T04:51:30.245Z,504.00
2023-01-10T04:52:30.222Z,506.00
2023-01-10T04:53:30.192Z,505.00
2023-01-10T04:54:30.173Z,505.00
2023-01-10T04:55:30.165Z,504.00
2023-01-10T04:56:30.119Z,504.00
2023-01-10T04:57:30.089Z,504.00
2023-01-10T04:58:30.056Z,503.00
2023-01-10T04:59:30.023Z,503.00
2023-01-10T05:00:30.002Z,506.00
2023-01-10T05:01:30.061Z,504.00
2023-01-10T05:02:30.102Z,503.00
2023-01-10T05:03:29.927Z,505.00
2023-01-10T05:04:29.896Z,504.00
2023-01-10T05:05:29.862Z,503.00
2023-01-10T05:06:29.836Z,503.00
2023-01-10T05:07:29.806Z,501.00
2023-01-10T05:08:29.778Z,502.00
2023-01-10T05:09:29.754Z,502.00
2023-01-10T05:10:29.736Z,503.00
2023-01-10T05:11:29.735Z,503.00
2023-01-10T05:12:29.684Z,502.00
2023-01-10T05:13:29.665Z,503.00
2023-01-10T05:14:29.651Z,503.00
2023-01-10T05:15:29.613Z,505.00
2023-01-10T05:16:29.654Z,502.00
2023-01-10T05:17:29.578Z,503.00
2023-01-10T05:18:29.556Z,502.00
2023-01-10T05:19:29.562Z,502.00
2023-01-10T05:20:29.510Z,502.00
2023-01-10T05:21:29.498Z,503.00
2023-01-10T05:22:29.469Z,502.00
2023-01-10T05:23:29.474Z,502.00
2023-01-10T05:24:29.433Z,502.00
2023-01-10T05:25:29.398Z,502.00
2023-01-10T05:26:29.396Z,503.00
2023-01-10T05:27:29.384Z,501.00
2023-01-10T05:28:29.343Z,502.00
2023-01-10T05:29:29.330Z,501.00
2023-01-10T05:30:29.297Z,503.00
2023-01-10T05:31:29.313Z,503.00
2023-01-10T05:32:29.264Z,503.00
2023-01-10T05:33:29.249Z,504.00
2023-01-10T05:34:29.216Z,502.00
2023-01-10T05:35:29.191Z,502.00
2023-01-10T05:36:29.165Z,501.00
2023-01-10T05:37:29.142Z,501.00
2023-01-10T05:38:29.114Z,500.00
2023-01-10T05:39:29.107Z,500.00
2023-01-10T05:40:29.084Z,503.00
2023-01-10T05:41:29.060Z,502.00
2023-01-10T05:42:29.031Z,501.00
2023-01-10T05:43:29.034Z,501.00
2023-01-10T05:44:28.998Z,500.00
2023-01-10T05:45:28.973Z,503.00
2023-01-10T05:46:28.959Z,502.00
2023-01-10T05:47:28.938Z,503.00
2023-01-10T05:48:28.927Z,503.00
2023-01-10T05:49:28.914Z,504.00
2023-01-10T05:50:28.885Z,502.00
2023-01-10T05:51:28.877Z,503.00
2023-01-10T05:52:29.683Z,503.00
2023-01-10T05:53:28.825Z,503.00
2023-01-10T05:54:28.791Z,500.00
2023-01-10T05:55:28.774Z,501.00
2023-01-10T05:56:28.768Z,500.00
2023-01-10T05:57:28.745Z,501.00
2023-01-10T05:58:28.720Z,500.00
2023-01-10T05:59:28.899Z,504.00
2023-01-10T06:00:28.666Z,505.00
2023-01-10T06:01:28.726Z,502.00
2023-01-10T06:02:28.703Z,503.00
2023-01-10T06:03:28.612Z,503.00
2023-01-10T06:04:28.576Z,501.00
2023-01-10T06:05:28.561Z,504.00
2023-01-10T06:06:28.546Z,505.00
2023-01-10T06:07:28.516Z,504.00
2023-01-10T06:08:28.489Z,505.00
2023-01-10T06:09:28.461Z,502.00
2023-01-10T06:10:28.443Z,501.00
2023-01-10T06:11:28.420Z,503.00
2023-01-10T06:12:28.398Z,503.00
2023-01-10T06:13:28.380Z,503.00
2023-01-10T06:14:28.356Z,503.00
2023-01-10T06:15:28.343Z,503.00
2023-01-10T06:16:28.292Z,502.00
2023-01-10T06:17:28.264Z,504.00
2023-01-10T06:18:28.236Z,501.00
2023-01-10T06:19:28.224Z,501.00
2023-01-10T06:20:28.199Z,501.00
2023-01-10T06:21:28.202Z,503.00
2023-01-10T06:22:28.127Z,502.00
2023-01-10T06:23:28.113Z,503.00
2023-01-10T06:24:28.092Z,504.00
2023-01-10T06:25:28.203Z,502.00
2023-01-10T06:26:28.072Z,502.00
2023-01-10T06:27:28.034Z,503.00
2023-01-10T06:28:28.108Z,502.00
2023-01-10T06:29:27.965Z,504.00
2023-01-10T06:30:28.221Z,505.00
2023-01-10T06:31:28.048Z,505.00
2023-01-10T06:32:27.911Z,505.00
2023-01-10T06:33:27.893Z,502.00
2023-01-10T06:34:27.858Z,506.00
2023-01-10T06:35:27.856Z,504.00
2023-01-10T06:36:27.822Z,507.00
2023-01-10T06:37:28.211Z,506.00
2023-01-10T06:38:27.776Z,503.00
2023-01-10T06:39:27.747Z,506.00
2023-01-10T06:40:27.714Z,506.00
2023-01-10T06:41:27.694Z,508.00
2023-01-10T06:42:27.731Z,507.00
2023-01-10T06:43:27.644Z,510.00
2023-01-10T06:44:27.649Z,517.00
2023-01-10T06:45:27.586Z,519.00
2023-01-10T06:46:27.564Z,519.00
2023-01-10T06:47:27.737Z,520.00
2023-01-10T06:48:27.530Z,522.00
2023-01-10T06:49:27.523Z,521.00
2023-01-10T06:50:27.495Z,525.00
2023-01-10T06:51:27.500Z,531.00
2023-01-10T06:52:27.726Z,540.00
2023-01-10T06:53:27.430Z,539.00
2023-01-10T06:54:27.421Z,537.00
2023-01-10T06:55:28.451Z,540.00
2023-01-10T06:56:27.348Z,535.00
2023-01-10T06:57:27.723Z,538.00
2023-01-10T06:58:27.303Z,546.00
2023-01-10T06:59:27.268Z,561.00
2023-01-10T07:00:27.238Z,567.00
2023-01-10T07:01:27.303Z,581.00
2023-01-10T07:02:27.295Z,599.00
2023-01-10T07:03:27.296Z,599.00
2023-01-10T07:04:27.196Z,604.00
2023-01-10T07:05:27.157Z,622.00
2023-01-10T07:06:27.101Z,629.00
2023-01-10T07:07:27.116Z,635.00
2023-01-10T07:08:27.215Z,652.00
2023-01-10T07:09:27.116Z,659.00
2023-01-10T07:10:27.219Z,686.00
2023-01-10T07:11:26.974Z,705.00
2023-01-10T07:12:26.924Z,737.00
2023-01-10T07:13:26.904Z,760.00
2023-01-10T07:14:30.105Z,775.00
2023-01-10T07:15:27.213Z,776.00
2023-01-10T07:16:26.893Z,782.00
2023-01-10T07:17:26.790Z,807.00
2023-01-10T07:18:26.759Z,840.00
2023-01-10T07:19:26.747Z,896.00
2023-01-10T07:20:26.755Z,920.00
2023-01-10T07:21:26.665Z,920.00
2023-01-10T07:22:26.738Z,951.00
2023-01-10T07:23:26.610Z,959.00
2023-01-10T07:24:26.732Z,986.00
2023-01-10T07:25:26.552Z,990.00
2023-01-10T07:26:26.518Z,992.00
2023-01-10T07:27:26.726Z,1002.00
2023-01-10T07:28:26.448Z,1016.00
2023-01-10T07:29:26.416Z,1033.00
2023-01-10T07:30:26.374Z,1052.00
2023-01-10T07:31:26.456Z,1045.00
2023-01-10T07:32:26.727Z,1069.00
2023-01-10T07:33:26.260Z,1077.00
2023-01-10T07:34:26.209Z,1093.00
2023-01-10T07:35:26.222Z,1086.00
2023-01-10T07:36:26.141Z,1105.00
2023-01-10T07:37:26.257Z,1112.00
2023-01-10T07:38:26.069Z,1112.00
2023-01-10T07:39:26.028Z,1124.00
2023-01-10T07:40:25.991Z,1140.00
2023-01-10T07:41:25.958Z,1154.00
2023-01-10T07:42:26.303Z,1165.00
2023-01-10T07:43:25.923Z,1167.00
2023-01-10T07:44:26.238Z,1151.00
2023-01-10T07:45:25.813Z,1146.00
2023-01-10T07:46:25.811Z,1116.00
2023-01-10T07:47:25.736Z,667.00
2023-01-10T07:48:25.704Z,609.00
2023-01-10T07:49:26.700Z,627.00
2023-01-10T07:50:25.660Z,590.00
2023-01-10T07:51:25.696Z,580.00
2023-01-10T07:52:25.742Z,555.00
2023-01-10T07:53:25.651Z,540.00
2023-01-10T07:54:25.658Z,521.00
2023-01-10T07:55:25.661Z,499.00
2023-01-10T07:56:25.667Z,500.00
2023-01-10T07:57:25.733Z,500.00
2023-01-10T07:58:25.698Z,500.00
2023-01-10T07:59:25.702Z,497.00
2023-01-10T08:00:25.716Z,499.00
2023-01-10T08:01:25.804Z,500.00
2023-01-10T08:02:25.932Z,502.00
2023-01-10T08:03:25.932Z,501.00
2023-01-10T08:04:25.759Z,500.00
2023-01-10T08:05:25.759Z,502.00
2023-01-10T08:06:25.784Z,500.00
2023-01-10T08:07:26.264Z,500.00
2023-01-10T08:08:25.786Z,506.00
2023-01-10T08:09:26.239Z,504.00
2023-01-10T08:10:26.330Z,500.00
2023-01-10T08:11:25.807Z,504.00
2023-01-10T08:12:27.741Z,503.00
2023-01-10T08:13:25.801Z,506.00
2023-01-10T08:14:26.319Z,514.00
2023-01-10T08:15:25.797Z,524.00
2023-01-10T08:16:25.899Z,520.00
2023-01-10T08:17:25.779Z,524.00
2023-01-10T08:18:27.272Z,530.00
2023-01-10T08:19:25.761Z,547.00
2023-01-10T08:20:25.749Z,553.00
2023-01-10T08:21:25.746Z,548.00
2023-01-10T08:22:28.926Z,563.00
2023-01-10T08:23:25.683Z,564.00
2023-01-10T08:24:25.669Z,566.00
2023-01-10T08:25:25.665Z,573.00
2023-01-10T08:26:25.742Z,580.00
2023-01-10T08:27:25.626Z,589.00
2023-01-10T08:28:25.609Z,593.00
2023-01-10T08:29:25.601Z,602.00
2023-01-10T08:30:25.587Z,604.00
2023-01-10T08:31:25.878Z,602.00
2023-01-10T08:32:25.555Z,599.00
2023-01-10T08:33:25.574Z,599.00
2023-01-10T08:34:25.505Z,599.00
2023-01-10T08:35:25.489Z,601.00
2023-01-10T08:36:25.741Z,601.00
2023-01-10T08:37:25.467Z,601.00
2023-01-10T08:38:25.458Z,607.00
2023-01-10T08:39:25.814Z,612.00
2023-01-10T08:40:25.400Z,623.00
2023-01-10T08:41:25.368Z,624.00
2023-01-10T08:42:25.348Z,626.00
2023-01-10T08:43:25.317Z,633.00
2023-01-10T08:44:25.749Z,632.00
2023-01-10T08:45:25.286Z,638.00
2023-01-10T08:46:25.765Z,649.00
2023-01-10T08:47:25.247Z,632.00
2023-01-10T08:48:25.235Z,658.00
2023-01-10T08:49:25.240Z,662.00
2023-01-10T08:50:25.214Z,693.00
2023-01-10T08:51:25.262Z,681.00
2023-01-10T08:52:25.176Z,692.00
2023-01-10T08:53:25.153Z,720.00
2023-01-10T08:54:25.175Z,750.00
2023-01-10T08:55:25.121Z,737.00
2023-01-10T08:56:25.260Z,759.00
2023-01-10T08:57:25.033Z,779.00
2023-01-10T08:58:25.036Z,796.00
2023-01-10T08:59:25.016Z,820.00
2023-01-10T09:00:24.954Z,823.00
2023-01-10T09:01:25.497Z,841.00
2023-01-10T09:02:24.925Z,863.00
2023-01-10T09:03:25.372Z,886.00
2023-01-10T09:04:24.856Z,900.00
2023-01-10T09:05:28.608Z,909.00
2023-01-10T09:06:25.297Z,911.00
2023-01-10T09:07:25.034Z,915.00
2023-01-10T09:08:24.754Z,929.00
2023-01-10T09:09:24.792Z,952.00
2023-01-10T09:10:24.671Z,988.00
2023-01-10T09:11:24.650Z,1005.00
2023-01-10T09:12:24.576Z,1017.00
2023-01-10T09:13:24.553Z,1045.00
2023-01-10T09:14:24.556Z,1061.00
2023-01-10T09:15:24.528Z,1076.00
2023-01-10T09:16:24.517Z,1083.00
2023-01-10T09:17:24.766Z,1095.00
2023-01-10T09:18:24.447Z,1107.00
2023-01-10T09:19:24.765Z,1123.00
2023-01-10T09:20:24.372Z,1159.00
2023-01-10T09:21:24.355Z,1163.00
2023-01-10T09:22:24.297Z,1171.00
2023-01-10T09:23:24.257Z,1175.00
2023-01-10T09:24:24.280Z,1192.00
2023-01-10T09:25:24.246Z,1209.00
2023-01-10T09:26:24.201Z,1220.00
2023-01-10T09:27:24.142Z,1228.00
2023-01-10T09:28:24.133Z,1252.00
2023-01-10T09:29:24.078Z,1279.00
2023-01-10T09:30:24.035Z,1284.00
2023-01-10T09:31:24.126Z,1298.00
2023-01-10T09:32:24.266Z,1317.00
2023-01-10T09:33:24.005Z,1320.00
2023-01-10T09:34:23.889Z,1324.00
2023-01-10T09:35:24.273Z,1342.00
2023-01-10T09:36:23.820Z,1347.00
2023-01-10T09:37:23.765Z,1350.00
2023-01-10T09:38:23.865Z,1355.00
2023-01-10T09:39:24.654Z,1375.00
2023-01-10T09:40:23.629Z,1399.00
2023-01-10T09:41:23.610Z,1412.00
2023-01-10T09:42:23.568Z,1424.00
2023-01-10T09:43:23.801Z,1420.00
2023-01-10T09:44:23.814Z,1429.00
2023-01-10T09:45:23.442Z,1455.00
2023-01-10T09:46:23.483Z,1438.00
2023-01-10T09:47:23.505Z,1461.00
2023-01-10T09:48:23.363Z,1477.00
2023-01-10T09:49:23.304Z,1479.00
2023-01-10T09:50:23.253Z,1490.00
2023-01-10T09:51:23.243Z,1487.00
2023-01-10T09:52:23.196Z,1504.00
2023-01-10T09:53:23.285Z,1506.00
2023-01-10T09:54:23.435Z,1576.00
2023-01-10T09:55:23.088Z,1540.00
2023-01-10T09:56:23.115Z,1525.00
2023-01-10T09:57:23.091Z,1532.00
2023-01-10T09:58:23.080Z,1553.00
2023-01-10T09:59:23.655Z,1557.00
2023-01-10T10:00:22.934Z,1567.00
2023-01-10T10:01:22.991Z,1562.00
2023-01-10T10:02:23.034Z,1578.00
2023-01-10T10:03:22.894Z,1577.00
2023-01-10T10:04:23.114Z,1575.00
2023-01-10T10:05:22.883Z,1599.00
2023-01-10T10:06:22.840Z,1592.00
2023-01-10T10:07:22.811Z,1625.00
2023-01-10T10:08:22.705Z,1625.00
2023-01-10T10:09:22.656Z,1628.00
2023-01-10T10:10:22.888Z,1635.00
2023-01-10T10:11:22.588Z,1632.00
2023-01-10T10:12:22.570Z,1641.00
2023-01-10T10:13:27.501Z,1645.00
2023-01-10T10:14:22.492Z,1648.00
2023-01-10T10:15:22.783Z,1652.00
2023-01-10T10:16:22.380Z,1659.00
2023-01-10T10:17:22.225Z,1665.00
2023-01-10T10:18:22.190Z,1724.00
2023-01-10T10:19:22.172Z,1703.00
2023-01-10T10:20:22.293Z,1712.00
2023-01-10T10:21:22.067Z,1721.00
2023-01-10T10:22:22.039Z,1736.00
2023-01-10T10:23:21.999Z,1745.00
2023-01-10T10:24:21.955Z,1735.00
2023-01-10T10:25:22.328Z,1761.00
2023-01-10T10:26:21.932Z,1747.00
2023-01-10T10:27:21.945Z,1750.00
2023-01-10T10:28:21.829Z,1754.00
2023-01-10T10:29:21.949Z,1734.00
2023-01-10T10:30:23.346Z,1738.00
2023-01-10T10:31:21.975Z,1738.00
2023-01-10T10:32:21.841Z,1715.00
2023-01-10T10:33:21.806Z,1714.00
2023-01-10T10:34:21.742Z,1682.00
2023-01-10T10:35:21.885Z,1661.00
2023-01-10T10:36:22.165Z,1639.00
2023-01-10T10:37:21.732Z,1570.00
2023-01-10T10:38:21.799Z,1590.00
2023-01-10T10:39:21.590Z,1551.00
2023-01-10T10:40:21.651Z,1522.00
2023-01-10T10:41:21.490Z,1501.00
2023-01-10T10:42:21.439Z,1499.00
2023-01-10T10:43:22.054Z,1499.00
2023-01-10T10:44:21.383Z,1499.00
2023-01-10T10:45:23.432Z,1472.00
2023-01-10T10:46:21.304Z,1473.00
2023-01-10T10:47:21.257Z,1474.00
2023-01-10T10:48:21.311Z,1470.00
2023-01-10T10:49:21.188Z,1505.00
2023-01-10T10:50:21.144Z,1708.00
2023-01-10T10:51:21.182Z,1688.00
2023-01-10T10:52:21.313Z,1650.00
2023-01-10T10:53:21.008Z,1635.00
2023-01-10T10:54:20.978Z,1618.00
2023-01-10T10:55:20.953Z,1618.00
2023-01-10T10:56:20.935Z,1590.00
2023-01-10T10:57:20.890Z,1350.00
2023-01-10T10:58:20.887Z,2146.00
2023-01-10T10:59:20.886Z,1555.00
2023-01-10T11:00:20.819Z,1496.00
2023-01-10T11:01:20.991Z,1366.00
2023-01-10T11:02:20.802Z,1399.00
2023-01-10T11:03:20.744Z,1436.00
2023-01-10T11:04:20.732Z,1420.00
2023-01-10T11:05:20.959Z,1414.00
2023-01-10T11:06:20.698Z,1406.00
2023-01-10T11:07:20.805Z,1391.00
2023-01-10T11:08:20.621Z,1381.00
2023-01-10T11:09:20.583Z,1370.00
2023-01-10T11:10:20.552Z,1365.00
2023-01-10T11:11:20.525Z,1361.00
2023-01-10T11:12:20.804Z,1364.00
2023-01-10T11:13:20.455Z,1359.00
2023-01-10T11:14:20.420Z,1347.00
2023-01-10T11:15:20.400Z,1454.00
2023-01-10T11:16:20.399Z,1411.00
2023-01-10T11:17:20.317Z,1328.00
2023-01-10T11:18:20.307Z,953.00
2023-01-10T11:19:20.267Z,965.00
2023-01-10T11:20:20.364Z,659.00
2023-01-10T11:21:22.093Z,650.00
2023-01-10T11:22:20.207Z,650.00
2023-01-10T11:23:20.195Z,642.00
2023-01-10T11:24:20.185Z,585.00
2023-01-10T11:25:20.407Z,627.00
2023-01-10T11:26:20.167Z,623.00
2023-01-10T11:27:20.178Z,611.00
2023-01-10T11:28:20.147Z,611.00
2023-01-10T11:29:20.127Z,632.00
2023-01-10T11:30:20.336Z,650.00
2023-01-10T11:31:20.349Z,658.00
2023-01-10T11:32:20.111Z,668.00
2023-01-10T11:33:20.601Z,695.00
2023-01-10T11:34:20.349Z,714.00
2023-01-10T11:35:20.171Z,755.00
2023-01-10T11:36:20.038Z,779.00
2023-01-10T11:37:20.317Z,805.00
2023-01-10T11:38:19.987Z,831.00
2023-01-10T11:39:20.315Z,874.00
2023-01-10T11:40:19.926Z,885.00
2023-01-10T11:41:19.905Z,926.00
2023-01-10T11:42:19.903Z,955.00
2023-01-10T11:43:20.270Z,1000.00
2023-01-10T11:44:20.818Z,1026.00
2023-01-10T11:45:20.836Z,1036.00
2023-01-10T11:46:19.853Z,1048.00
2023-01-10T11:47:19.704Z,1073.00
2023-01-10T11:48:20.280Z,1090.00
2023-01-10T11:49:19.856Z,1103.00
2023-01-10T11:50:19.777Z,1101.00
2023-01-10T11:51:19.567Z,1125.00
2023-01-10T11:52:19.840Z,1137.00
2023-01-10T11:53:19.502Z,1155.00
2023-01-10T11:54:19.455Z,1168.00
2023-01-10T11:55:19.491Z,1184.00
2023-01-10T11:56:19.391Z,1193.00
2023-01-10T11:57:19.825Z,1191.00
2023-01-10T11:58:19.330Z,1206.00
2023-01-10T11:59:19.295Z,1224.00
2023-01-10T12:00:19.292Z,1233.00
2023-01-10T12:01:19.280Z,1252.00
2023-01-10T12:02:19.364Z,1250.00
2023-01-10T12:03:19.204Z,1270.00
2023-01-10T12:04:19.154Z,1294.00
2023-01-10T12:05:19.196Z,1286.00
2023-01-10T12:06:19.092Z,1304.00
2023-01-10T12:07:19.323Z,1309.00
2023-01-10T12:08:18.988Z,1315.00
2023-01-10T12:09:19.327Z,1331.00
2023-01-10T12:10:21.011Z,1341.00
2023-01-10T12:11:18.879Z,1365.00
2023-01-10T12:12:19.325Z,1361.00
2023-01-10T12:13:18.801Z,1384.00
2023-01-10T12:14:19.066Z,1377.00
2023-01-10T12:15:18.721Z,1373.00
2023-01-10T12:16:18.787Z,1337.00
2023-01-10T12:17:18.831Z,1271.00
2023-01-10T12:18:18.621Z,1162.00
2023-01-10T12:19:18.619Z,985.00
2023-01-10T12:20:18.561Z,912.00
2023-01-10T12:21:18.547Z,886.00
2023-01-10T12:22:18.855Z,869.00
2023-01-10T12:23:18.503Z,825.00
2023-01-10T12:24:18.468Z,1059.00
2023-01-10T12:25:18.450Z,1155.00
2023-01-10T12:26:18.409Z,1100.00
2023-01-10T12:27:18.834Z,1038.00
2023-01-10T12:28:18.358Z,1000.00
2023-01-10T12:29:18.314Z,1022.00
2023-01-10T12:30:18.287Z,1042.00
2023-01-10T12:31:18.335Z,1050.00
2023-01-10T12:32:18.225Z,1059.00
2023-01-10T12:33:18.335Z,1071.00
2023-01-10T12:34:18.141Z,1062.00
2023-01-10T12:35:18.103Z,1089.00
2023-01-10T12:36:18.065Z,1104.00
2023-01-10T12:37:18.029Z,1125.00
2023-01-10T12:38:18.364Z,1131.00
2023-01-10T12:39:17.961Z,1132.00
2023-01-10T12:40:17.932Z,1157.00
2023-01-10T12:41:17.897Z,1165.00
2023-01-10T12:42:17.864Z,1186.00
2023-01-10T12:43:17.874Z,1184.00
2023-01-10T12:44:18.341Z,1197.00
2023-01-10T12:45:18.099Z,1204.00
2023-01-10T12:46:33.625Z,1223.00
2023-01-10T12:47:17.955Z,1225.00
2023-01-10T12:48:17.861Z,1233.00
2023-01-10T12:49:17.600Z,1244.00
2023-01-10T12:50:17.530Z,1253.00
2023-01-10T12:51:17.489Z,1267.00
2023-01-10T12:52:17.462Z,1263.00
2023-01-10T12:53:17.931Z,1277.00
2023-01-10T12:54:17.386Z,1276.00
2023-01-10T12:55:17.457Z,1266.00
2023-01-10T12:56:17.320Z,1256.00
2023-01-10T12:57:17.253Z,1228.00
2023-01-10T12:58:17.344Z,1223.00
2023-01-10T12:59:23.749Z,1207.00
2023-01-10T13:00:17.148Z,1208.00
2023-01-10T13:01:17.274Z,1211.00
2023-01-10T13:02:17.149Z,1192.00
2023-01-10T13:03:17.354Z,1185.00
2023-01-10T13:04:16.983Z,1185.00
2023-01-10T13:05:16.989Z,1168.00
2023-01-10T13:06:16.915Z,1168.00
2023-01-10T13:07:16.870Z,1167.00
2023-01-10T13:08:17.258Z,1166.00
2023-01-10T13:09:17.322Z,1161.00
2023-01-10T13:10:16.786Z,1145.00